sensor_id;sensor_type;location;lat;lon;timestamp;P1;durP1;ratioP1;P2;durP2;ratioP2
54307;SDS011;40208;39.778;2.710;2023-06-14T00:00:04;13.23;;;3.35;;
54307;SDS011;40208;39.778;2.710;2023-06-14T00:02:51;16.05;;;3.72;;
54307;SDS011;40208;39.778;2.710;2023-06-14T00:05:40;11.57;;;3.80;;
54307;SDS011;40208;39.778;2.710;2023-06-14T00:08:27;19.00;;;4.35;;
54307;SDS011;40208;39.778;2.710;2023-06-14T00:11:12;17.02;;;5.25;;
54307;SDS011;40208;39.778;2.710;2023-06-14T00:13:57;13.55;;;4.05;;
54307;SDS011;40208;39.778;2.710;2023-06-14T00:16:42;7.80;;;3.58;;
54307;SDS011;40208;39.778;2.710;2023-06-14T00:19:27;12.68;;;3.95;;
54307;SDS011;40208;39.778;2.710;2023-06-14T00:22:13;12.02;;;3.70;;
54307;SDS011;40208;39.778;2.710;2023-06-14T00:24:58;15.40;;;3.88;;
54307;SDS011;40208;39.778;2.710;2023-06-14T00:27:43;13.70;;;3.58;;
54307;SDS011;40208;39.778;2.710;2023-06-14T00:30:28;12.18;;;3.55;;
54307;SDS011;40208;39.778;2.710;2023-06-14T00:33:15;17.65;;;4.05;;
54307;SDS011;40208;39.778;2.710;2023-06-14T00:36:00;12.68;;;3.60;;
54307;SDS011;40208;39.778;2.710;2023-06-14T00:38:45;14.57;;;4.13;;
54307;SDS011;40208;39.778;2.710;2023-06-14T00:41:29;11.05;;;3.25;;
54307;SDS011;40208;39.778;2.710;2023-06-14T00:44:14;12.98;;;3.47;;
54307;SDS011;40208;39.778;2.710;2023-06-14T00:47:01;8.93;;;3.55;;
54307;SDS011;40208;39.778;2.710;2023-06-14T00:49:49;19.17;;;4.60;;
54307;SDS011;40208;39.778;2.710;2023-06-14T00:52:37;15.85;;;4.82;;
54307;SDS011;40208;39.778;2.710;2023-06-14T00:55:23;17.15;;;3.97;;
54307;SDS011;40208;39.778;2.710;2023-06-14T00:58:08;12.63;;;3.88;;
54307;SDS011;40208;39.778;2.710;2023-06-14T01:00:54;12.40;;;3.20;;
54307;SDS011;40208;39.778;2.710;2023-06-14T01:03:40;10.18;;;3.08;;
54307;SDS011;40208;39.778;2.710;2023-06-14T01:06:43;7.82;;;3.08;;
54307;SDS011;40208;39.778;2.710;2023-06-14T01:15:43;7.97;;;3.47;;
54307;SDS011;40208;39.778;2.710;2023-06-14T01:18:28;6.68;;;2.70;;
54307;SDS011;40208;39.778;2.710;2023-06-14T01:21:23;11.50;;;2.33;;
54307;SDS011;40208;39.778;2.710;2023-06-14T01:24:09;4.38;;;2.10;;
54307;SDS011;40208;39.778;2.710;2023-06-14T01:26:55;3.78;;;2.15;;
54307;SDS011;40208;39.778;2.710;2023-06-14T01:29:41;4.43;;;2.38;;
54307;SDS011;40208;39.778;2.710;2023-06-14T01:32:30;6.10;;;2.40;;
54307;SDS011;40208;39.778;2.710;2023-06-14T01:35:14;5.15;;;2.40;;
54307;SDS011;40208;39.778;2.710;2023-06-14T01:37:59;4.55;;;2.38;;
54307;SDS011;40208;39.778;2.710;2023-06-14T01:40:45;3.08;;;2.17;;
54307;SDS011;40208;39.778;2.710;2023-06-14T01:43:31;4.65;;;2.22;;
54307;SDS011;40208;39.778;2.710;2023-06-14T01:46:20;6.40;;;2.58;;
54307;SDS011;40208;39.778;2.710;2023-06-14T01:49:06;6.95;;;2.28;;
54307;SDS011;40208;39.778;2.710;2023-06-14T01:51:51;4.68;;;2.20;;
54307;SDS011;40208;39.778;2.710;2023-06-14T01:54:36;4.75;;;2.20;;
54307;SDS011;40208;39.778;2.710;2023-06-14T01:57:26;8.23;;;2.60;;
54307;SDS011;40208;39.778;2.710;2023-06-14T02:00:14;5.72;;;2.22;;
54307;SDS011;40208;39.778;2.710;2023-06-14T02:03:00;8.85;;;2.53;;
54307;SDS011;40208;39.778;2.710;2023-06-14T02:05:48;8.02;;;2.55;;
54307;SDS011;40208;39.778;2.710;2023-06-14T02:08:33;6.55;;;2.45;;
54307;SDS011;40208;39.778;2.710;2023-06-14T02:11:17;4.30;;;2.25;;
54307;SDS011;40208;39.778;2.710;2023-06-14T02:14:02;5.05;;;2.58;;
54307;SDS011;40208;39.778;2.710;2023-06-14T02:16:47;4.63;;;2.40;;
54307;SDS011;40208;39.778;2.710;2023-06-14T02:19:34;5.30;;;2.42;;
54307;SDS011;40208;39.778;2.710;2023-06-14T02:22:20;7.55;;;2.85;;
54307;SDS011;40208;39.778;2.710;2023-06-14T02:25:06;6.00;;;2.90;;
54307;SDS011;40208;39.778;2.710;2023-06-14T02:27:54;4.50;;;2.60;;
54307;SDS011;40208;39.778;2.710;2023-06-14T02:30:39;5.95;;;2.25;;
54307;SDS011;40208;39.778;2.710;2023-06-14T02:33:25;5.43;;;2.30;;
54307;SDS011;40208;39.778;2.710;2023-06-14T02:36:10;4.55;;;2.20;;
54307;SDS011;40208;39.778;2.710;2023-06-14T02:38:55;8.40;;;2.40;;
54307;SDS011;40208;39.778;2.710;2023-06-14T02:41:41;6.63;;;2.50;;
54307;SDS011;40208;39.778;2.710;2023-06-14T02:44:26;5.57;;;2.00;;
54307;SDS011;40208;39.778;2.710;2023-06-14T02:47:12;5.22;;;2.55;;
54307;SDS011;40208;39.778;2.710;2023-06-14T02:49:57;4.70;;;2.33;;
54307;SDS011;40208;39.778;2.710;2023-06-14T02:52:41;3.92;;;2.33;;
54307;SDS011;40208;39.778;2.710;2023-06-14T02:55:26;6.05;;;2.80;;
54307;SDS011;40208;39.778;2.710;2023-06-14T02:58:12;5.25;;;2.47;;
54307;SDS011;40208;39.778;2.710;2023-06-14T03:00:57;7.65;;;2.80;;
54307;SDS011;40208;39.778;2.710;2023-06-14T03:03:46;4.75;;;2.17;;
54307;SDS011;40208;39.778;2.710;2023-06-14T03:06:30;11.07;;;2.85;;
54307;SDS011;40208;39.778;2.710;2023-06-14T03:09:15;4.88;;;2.22;;
54307;SDS011;40208;39.778;2.710;2023-06-14T03:12:01;4.63;;;2.50;;
54307;SDS011;40208;39.778;2.710;2023-06-14T03:14:47;5.88;;;2.20;;
54307;SDS011;40208;39.778;2.710;2023-06-14T03:17:32;7.90;;;2.70;;
54307;SDS011;40208;39.778;2.710;2023-06-14T03:20:17;6.50;;;2.97;;
54307;SDS011;40208;39.778;2.710;2023-06-14T03:23:03;5.25;;;2.35;;
54307;SDS011;40208;39.778;2.710;2023-06-14T03:25:50;3.83;;;2.50;;
54307;SDS011;40208;39.778;2.710;2023-06-14T03:28:35;8.70;;;2.45;;
54307;SDS011;40208;39.778;2.710;2023-06-14T03:31:20;5.03;;;2.63;;
54307;SDS011;40208;39.778;2.710;2023-06-14T03:34:05;6.15;;;3.03;;
54307;SDS011;40208;39.778;2.710;2023-06-14T03:36:50;7.53;;;2.67;;
54307;SDS011;40208;39.778;2.710;2023-06-14T03:39:37;6.95;;;2.83;;
54307;SDS011;40208;39.778;2.710;2023-06-14T03:42:30;10.75;;;2.72;;
54307;SDS011;40208;39.778;2.710;2023-06-14T03:45:15;6.43;;;2.65;;
54307;SDS011;40208;39.778;2.710;2023-06-14T03:48:00;3.67;;;2.25;;
54307;SDS011;40208;39.778;2.710;2023-06-14T03:50:46;6.45;;;2.53;;
54307;SDS011;40208;39.778;2.710;2023-06-14T03:53:31;5.90;;;2.83;;
54307;SDS011;40208;39.778;2.710;2023-06-14T03:56:16;4.82;;;2.50;;
54307;SDS011;40208;39.778;2.710;2023-06-14T03:59:01;10.40;;;3.00;;
54307;SDS011;40208;39.778;2.710;2023-06-14T04:01:46;4.00;;;2.75;;
54307;SDS011;40208;39.778;2.710;2023-06-14T04:04:31;6.35;;;2.22;;
54307;SDS011;40208;39.778;2.710;2023-06-14T04:07:17;5.82;;;2.53;;
54307;SDS011;40208;39.778;2.710;2023-06-14T04:10:05;6.25;;;2.85;;
54307;SDS011;40208;39.778;2.710;2023-06-14T04:12:51;4.30;;;2.50;;
54307;SDS011;40208;39.778;2.710;2023-06-14T04:15:36;7.00;;;2.75;;
54307;SDS011;40208;39.778;2.710;2023-06-14T04:18:21;7.03;;;2.33;;
54307;SDS011;40208;39.778;2.710;2023-06-14T04:21:08;5.10;;;2.78;;
54307;SDS011;40208;39.778;2.710;2023-06-14T04:23:53;3.38;;;2.42;;
54307;SDS011;40208;39.778;2.710;2023-06-14T04:26:44;5.60;;;2.60;;
54307;SDS011;40208;39.778;2.710;2023-06-14T04:29:31;4.38;;;2.63;;
54307;SDS011;40208;39.778;2.710;2023-06-14T04:32:16;4.72;;;3.05;;
54307;SDS011;40208;39.778;2.710;2023-06-14T04:35:06;4.30;;;2.75;;
54307;SDS011;40208;39.778;2.710;2023-06-14T04:37:52;11.05;;;3.15;;
54307;SDS011;40208;39.778;2.710;2023-06-14T04:40:37;5.82;;;3.00;;
54307;SDS011;40208;39.778;2.710;2023-06-14T04:43:29;7.35;;;3.28;;
54307;SDS011;40208;39.778;2.710;2023-06-14T04:46:14;4.32;;;2.67;;
54307;SDS011;40208;39.778;2.710;2023-06-14T04:48:59;5.70;;;2.90;;
54307;SDS011;40208;39.778;2.710;2023-06-14T04:51:46;6.97;;;3.13;;
54307;SDS011;40208;39.778;2.710;2023-06-14T04:54:44;7.15;;;3.92;;
54307;SDS011;40208;39.778;2.710;2023-06-14T04:57:30;7.88;;;3.40;;
54307;SDS011;40208;39.778;2.710;2023-06-14T05:00:16;5.35;;;2.90;;
54307;SDS011;40208;39.778;2.710;2023-06-14T05:03:03;6.43;;;3.08;;
54307;SDS011;40208;39.778;2.710;2023-06-14T05:05:52;6.55;;;2.83;;
54307;SDS011;40208;39.778;2.710;2023-06-14T05:08:37;6.22;;;3.03;;
54307;SDS011;40208;39.778;2.710;2023-06-14T05:11:22;4.80;;;2.40;;
54307;SDS011;40208;39.778;2.710;2023-06-14T05:14:11;4.93;;;2.60;;
54307;SDS011;40208;39.778;2.710;2023-06-14T05:16:57;8.77;;;3.15;;
54307;SDS011;40208;39.778;2.710;2023-06-14T05:19:41;5.57;;;3.00;;
54307;SDS011;40208;39.778;2.710;2023-06-14T05:22:27;5.47;;;2.75;;
54307;SDS011;40208;39.778;2.710;2023-06-14T05:25:12;8.88;;;3.28;;
54307;SDS011;40208;39.778;2.710;2023-06-14T05:27:57;6.63;;;3.05;;
54307;SDS011;40208;39.778;2.710;2023-06-14T05:30:41;4.88;;;2.53;;
54307;SDS011;40208;39.778;2.710;2023-06-14T05:33:26;6.68;;;3.30;;
54307;SDS011;40208;39.778;2.710;2023-06-14T05:36:11;8.13;;;2.95;;
54307;SDS011;40208;39.778;2.710;2023-06-14T05:38:56;10.13;;;2.97;;
54307;SDS011;40208;39.778;2.710;2023-06-14T05:41:47;8.75;;;2.97;;
54307;SDS011;40208;39.778;2.710;2023-06-14T05:44:32;4.85;;;3.22;;
54307;SDS011;40208;39.778;2.710;2023-06-14T05:47:17;5.53;;;2.85;;
54307;SDS011;40208;39.778;2.710;2023-06-14T05:50:02;4.82;;;3.10;;
54307;SDS011;40208;39.778;2.710;2023-06-14T05:52:47;5.70;;;3.22;;
54307;SDS011;40208;39.778;2.710;2023-06-14T05:55:32;11.10;;;3.03;;
54307;SDS011;40208;39.778;2.710;2023-06-14T05:58:17;5.22;;;3.13;;
54307;SDS011;40208;39.778;2.710;2023-06-14T06:01:01;4.90;;;2.95;;
54307;SDS011;40208;39.778;2.710;2023-06-14T06:03:46;6.82;;;3.05;;
54307;SDS011;40208;39.778;2.710;2023-06-14T06:06:34;12.43;;;4.90;;
54307;SDS011;40208;39.778;2.710;2023-06-14T06:09:20;8.50;;;3.92;;
54307;SDS011;40208;39.778;2.710;2023-06-14T06:12:06;8.25;;;4.22;;
54307;SDS011;40208;39.778;2.710;2023-06-14T06:14:51;8.45;;;3.63;;
54307;SDS011;40208;39.778;2.710;2023-06-14T06:17:36;9.95;;;4.28;;
54307;SDS011;40208;39.778;2.710;2023-06-14T06:20:21;10.40;;;4.60;;
54307;SDS011;40208;39.778;2.710;2023-06-14T06:23:12;14.07;;;4.30;;
54307;SDS011;40208;39.778;2.710;2023-06-14T06:25:57;7.35;;;2.63;;
54307;SDS011;40208;39.778;2.710;2023-06-14T06:28:42;6.60;;;2.70;;
54307;SDS011;40208;39.778;2.710;2023-06-14T06:31:29;5.20;;;2.88;;
54307;SDS011;40208;39.778;2.710;2023-06-14T06:34:14;8.27;;;2.47;;
54307;SDS011;40208;39.778;2.710;2023-06-14T06:36:59;7.22;;;2.63;;
54307;SDS011;40208;39.778;2.710;2023-06-14T06:39:43;5.53;;;1.75;;
54307;SDS011;40208;39.778;2.710;2023-06-14T06:42:29;5.68;;;1.95;;
54307;SDS011;40208;39.778;2.710;2023-06-14T06:45:14;8.48;;;2.42;;
54307;SDS011;40208;39.778;2.710;2023-06-14T06:47:59;4.28;;;2.08;;
54307;SDS011;40208;39.778;2.710;2023-06-14T06:50:44;2.70;;;1.73;;
54307;SDS011;40208;39.778;2.710;2023-06-14T06:53:29;6.43;;;2.28;;
54307;SDS011;40208;39.778;2.710;2023-06-14T06:56:14;3.95;;;1.70;;
54307;SDS011;40208;39.778;2.710;2023-06-14T06:58:59;3.63;;;1.90;;
54307;SDS011;40208;39.778;2.710;2023-06-14T07:01:44;5.13;;;1.80;;
54307;SDS011;40208;39.778;2.710;2023-06-14T07:04:29;3.42;;;2.03;;
54307;SDS011;40208;39.778;2.710;2023-06-14T07:07:13;5.32;;;1.98;;
54307;SDS011;40208;39.778;2.710;2023-06-14T07:09:58;2.58;;;1.70;;
54307;SDS011;40208;39.778;2.710;2023-06-14T07:12:44;2.97;;;1.70;;
54307;SDS011;40208;39.778;2.710;2023-06-14T07:15:29;4.57;;;1.88;;
54307;SDS011;40208;39.778;2.710;2023-06-14T07:18:14;3.85;;;1.67;;
54307;SDS011;40208;39.778;2.710;2023-06-14T07:20:59;3.38;;;1.63;;
54307;SDS011;40208;39.778;2.710;2023-06-14T07:23:46;3.20;;;1.77;;
54307;SDS011;40208;39.778;2.710;2023-06-14T07:26:31;2.88;;;1.58;;
54307;SDS011;40208;39.778;2.710;2023-06-14T07:29:20;2.50;;;1.60;;
54307;SDS011;40208;39.778;2.710;2023-06-14T07:32:05;2.53;;;1.90;;
54307;SDS011;40208;39.778;2.710;2023-06-14T07:34:50;3.22;;;1.60;;
54307;SDS011;40208;39.778;2.710;2023-06-14T07:37:35;2.88;;;1.70;;
54307;SDS011;40208;39.778;2.710;2023-06-14T07:40:20;2.67;;;2.03;;
54307;SDS011;40208;39.778;2.710;2023-06-14T07:43:05;5.13;;;2.05;;
54307;SDS011;40208;39.778;2.710;2023-06-14T07:45:51;3.25;;;2.00;;
54307;SDS011;40208;39.778;2.710;2023-06-14T07:48:36;2.13;;;1.50;;
54307;SDS011;40208;39.778;2.710;2023-06-14T07:51:21;9.07;;;1.85;;
54307;SDS011;40208;39.778;2.710;2023-06-14T07:54:07;3.10;;;1.35;;
54307;SDS011;40208;39.778;2.710;2023-06-14T07:56:53;3.60;;;1.50;;
54307;SDS011;40208;39.778;2.710;2023-06-14T07:59:37;4.28;;;1.77;;
54307;SDS011;40208;39.778;2.710;2023-06-14T08:02:22;5.00;;;1.90;;
54307;SDS011;40208;39.778;2.710;2023-06-14T08:05:09;8.88;;;1.88;;
54307;SDS011;40208;39.778;2.710;2023-06-14T08:07:55;6.70;;;1.65;;
54307;SDS011;40208;39.778;2.710;2023-06-14T08:10:40;8.45;;;1.92;;
54307;SDS011;40208;39.778;2.710;2023-06-14T08:13:25;2.55;;;1.38;;
54307;SDS011;40208;39.778;2.710;2023-06-14T08:16:09;3.25;;;1.60;;
54307;SDS011;40208;39.778;2.710;2023-06-14T08:18:55;1.67;;;1.30;;
54307;SDS011;40208;39.778;2.710;2023-06-14T08:21:40;3.05;;;2.05;;
54307;SDS011;40208;39.778;2.710;2023-06-14T08:24:25;3.80;;;1.70;;
54307;SDS011;40208;39.778;2.710;2023-06-14T08:27:13;3.03;;;1.75;;
54307;SDS011;40208;39.778;2.710;2023-06-14T08:29:59;5.95;;;1.65;;
54307;SDS011;40208;39.778;2.710;2023-06-14T08:32:43;2.95;;;1.60;;
54307;SDS011;40208;39.778;2.710;2023-06-14T08:35:29;2.53;;;1.48;;
54307;SDS011;40208;39.778;2.710;2023-06-14T08:38:14;3.42;;;1.75;;
54307;SDS011;40208;39.778;2.710;2023-06-14T08:40:58;5.28;;;1.73;;
54307;SDS011;40208;39.778;2.710;2023-06-14T08:43:47;6.40;;;1.98;;
54307;SDS011;40208;39.778;2.710;2023-06-14T08:46:33;2.88;;;1.77;;
54307;SDS011;40208;39.778;2.710;2023-06-14T08:49:21;8.27;;;2.50;;
54307;SDS011;40208;39.778;2.710;2023-06-14T08:52:06;5.35;;;1.98;;
54307;SDS011;40208;39.778;2.710;2023-06-14T08:54:55;13.30;;;2.83;;
54307;SDS011;40208;39.778;2.710;2023-06-14T08:57:40;11.68;;;2.75;;
54307;SDS011;40208;39.778;2.710;2023-06-14T09:00:26;6.45;;;1.95;;
54307;SDS011;40208;39.778;2.710;2023-06-14T09:03:12;5.20;;;2.22;;
54307;SDS011;40208;39.778;2.710;2023-06-14T09:06:00;8.18;;;1.98;;
54307;SDS011;40208;39.778;2.710;2023-06-14T09:08:46;9.10;;;2.70;;
54307;SDS011;40208;39.778;2.710;2023-06-14T09:11:33;7.93;;;2.72;;
54307;SDS011;40208;39.778;2.710;2023-06-14T09:14:19;9.02;;;3.30;;
54307;SDS011;40208;39.778;2.710;2023-06-14T09:17:05;9.20;;;3.08;;
54307;SDS011;40208;39.778;2.710;2023-06-14T09:19:50;6.45;;;2.80;;
54307;SDS011;40208;39.778;2.710;2023-06-14T09:22:35;4.43;;;2.47;;
54307;SDS011;40208;39.778;2.710;2023-06-14T09:25:22;8.38;;;2.72;;
54307;SDS011;40208;39.778;2.710;2023-06-14T09:28:09;12.45;;;2.38;;
54307;SDS011;40208;39.778;2.710;2023-06-14T09:30:54;7.20;;;2.10;;
54307;SDS011;40208;39.778;2.710;2023-06-14T09:33:43;5.07;;;2.13;;
54307;SDS011;40208;39.778;2.710;2023-06-14T09:36:32;4.68;;;1.88;;
54307;SDS011;40208;39.778;2.710;2023-06-14T09:39:17;5.28;;;2.20;;
54307;SDS011;40208;39.778;2.710;2023-06-14T09:42:05;7.35;;;2.10;;
54307;SDS011;40208;39.778;2.710;2023-06-14T09:45:04;5.85;;;2.10;;
54307;SDS011;40208;39.778;2.710;2023-06-14T09:47:50;6.57;;;2.33;;
54307;SDS011;40208;39.778;2.710;2023-06-14T09:50:35;5.55;;;1.67;;
54307;SDS011;40208;39.778;2.710;2023-06-14T09:53:20;7.80;;;2.70;;
54307;SDS011;40208;39.778;2.710;2023-06-14T09:56:09;14.45;;;2.33;;
54307;SDS011;40208;39.778;2.710;2023-06-14T09:58:56;6.53;;;2.20;;
54307;SDS011;40208;39.778;2.710;2023-06-14T10:01:43;5.63;;;2.22;;
54307;SDS011;40208;39.778;2.710;2023-06-14T10:04:29;7.88;;;1.92;;
54307;SDS011;40208;39.778;2.710;2023-06-14T10:07:19;5.65;;;1.85;;
54307;SDS011;40208;39.778;2.710;2023-06-14T10:10:07;3.88;;;1.65;;
54307;SDS011;40208;39.778;2.710;2023-06-14T10:12:52;6.10;;;2.25;;
54307;SDS011;40208;39.778;2.710;2023-06-14T10:15:52;9.13;;;1.67;;
54307;SDS011;40208;39.778;2.710;2023-06-14T10:18:47;10.55;;;2.45;;
54307;SDS011;40208;39.778;2.710;2023-06-14T10:21:55;8.32;;;2.05;;
54307;SDS011;40208;39.778;2.710;2023-06-14T10:24:44;7.68;;;2.03;;
54307;SDS011;40208;39.778;2.710;2023-06-14T10:27:30;6.13;;;1.65;;
54307;SDS011;40208;39.778;2.710;2023-06-14T10:30:16;4.55;;;1.60;;
54307;SDS011;40208;39.778;2.710;2023-06-14T10:33:04;7.97;;;2.30;;
54307;SDS011;40208;39.778;2.710;2023-06-14T10:36:10;6.47;;;1.85;;
54307;SDS011;40208;39.778;2.710;2023-06-14T10:39:16;8.35;;;2.28;;
54307;SDS011;40208;39.778;2.710;2023-06-14T10:42:02;8.70;;;2.25;;
54307;SDS011;40208;39.778;2.710;2023-06-14T10:44:52;6.47;;;1.63;;
54307;SDS011;40208;39.778;2.710;2023-06-14T10:47:42;7.35;;;1.95;;
54307;SDS011;40208;39.778;2.710;2023-06-14T10:50:27;6.20;;;2.30;;
54307;SDS011;40208;39.778;2.710;2023-06-14T10:53:23;5.93;;;1.92;;
54307;SDS011;40208;39.778;2.710;2023-06-14T10:56:08;8.65;;;1.75;;
54307;SDS011;40208;39.778;2.710;2023-06-14T10:58:56;9.98;;;2.00;;
54307;SDS011;40208;39.778;2.710;2023-06-14T11:05:06;8.73;;;1.80;;
54307;SDS011;40208;39.778;2.710;2023-06-14T11:10:43;12.02;;;2.17;;
54307;SDS011;40208;39.778;2.710;2023-06-14T11:13:32;2.75;;;1.13;;
54307;SDS011;40208;39.778;2.710;2023-06-14T11:16:20;5.90;;;1.80;;
54307;SDS011;40208;39.778;2.710;2023-06-14T11:19:05;6.47;;;1.88;;
54307;SDS011;40208;39.778;2.710;2023-06-14T11:21:50;3.58;;;1.50;;
54307;SDS011;40208;39.778;2.710;2023-06-14T11:24:35;5.40;;;1.55;;
54307;SDS011;40208;39.778;2.710;2023-06-14T11:27:20;5.50;;;1.65;;
54307;SDS011;40208;39.778;2.710;2023-06-14T11:30:07;7.47;;;1.55;;
54307;SDS011;40208;39.778;2.710;2023-06-14T11:32:54;6.55;;;1.42;;
54307;SDS011;40208;39.778;2.710;2023-06-14T11:35:39;3.78;;;1.30;;
54307;SDS011;40208;39.778;2.710;2023-06-14T11:38:25;3.08;;;1.52;;
54307;SDS011;40208;39.778;2.710;2023-06-14T11:41:11;4.38;;;1.40;;
54307;SDS011;40208;39.778;2.710;2023-06-14T11:43:56;3.10;;;1.23;;
54307;SDS011;40208;39.778;2.710;2023-06-14T11:46:42;5.68;;;1.35;;
54307;SDS011;40208;39.778;2.710;2023-06-14T11:49:27;2.08;;;1.30;;
54307;SDS011;40208;39.778;2.710;2023-06-14T11:52:12;2.92;;;1.55;;
54307;SDS011;40208;39.778;2.710;2023-06-14T11:54:57;3.70;;;1.85;;
54307;SDS011;40208;39.778;2.710;2023-06-14T11:57:43;2.97;;;1.52;;
54307;SDS011;40208;39.778;2.710;2023-06-14T12:00:28;4.60;;;1.33;;
54307;SDS011;40208;39.778;2.710;2023-06-14T12:03:13;2.90;;;1.40;;
54307;SDS011;40208;39.778;2.710;2023-06-14T12:06:19;2.03;;;1.40;;
54307;SDS011;40208;39.778;2.710;2023-06-14T12:09:13;3.17;;;1.55;;
54307;SDS011;40208;39.778;2.710;2023-06-14T12:12:01;5.88;;;1.70;;
54307;SDS011;40208;39.778;2.710;2023-06-14T12:14:48;7.57;;;1.70;;
54307;SDS011;40208;39.778;2.710;2023-06-14T12:17:35;2.80;;;1.40;;
54307;SDS011;40208;39.778;2.710;2023-06-14T12:20:22;2.17;;;1.27;;
54307;SDS011;40208;39.778;2.710;2023-06-14T12:23:16;2.67;;;1.60;;
54307;SDS011;40208;39.778;2.710;2023-06-14T12:26:01;3.55;;;1.50;;
54307;SDS011;40208;39.778;2.710;2023-06-14T12:28:49;6.32;;;1.30;;
54307;SDS011;40208;39.778;2.710;2023-06-14T12:31:34;4.65;;;1.50;;
54307;SDS011;40208;39.778;2.710;2023-06-14T12:34:26;2.83;;;1.50;;
54307;SDS011;40208;39.778;2.710;2023-06-14T12:37:11;3.90;;;1.50;;
54307;SDS011;40208;39.778;2.710;2023-06-14T12:39:56;5.25;;;1.30;;
54307;SDS011;40208;39.778;2.710;2023-06-14T12:42:41;3.03;;;1.40;;
54307;SDS011;40208;39.778;2.710;2023-06-14T12:45:26;3.38;;;1.40;;
54307;SDS011;40208;39.778;2.710;2023-06-14T12:48:12;4.80;;;1.65;;
54307;SDS011;40208;39.778;2.710;2023-06-14T12:50:57;4.10;;;1.63;;
54307;SDS011;40208;39.778;2.710;2023-06-14T12:53:42;4.57;;;1.67;;
54307;SDS011;40208;39.778;2.710;2023-06-14T12:56:28;1.77;;;1.48;;
54307;SDS011;40208;39.778;2.710;2023-06-14T12:59:13;3.50;;;1.42;;
54307;SDS011;40208;39.778;2.710;2023-06-14T13:01:57;2.95;;;1.50;;
54307;SDS011;40208;39.778;2.710;2023-06-14T13:04:43;2.75;;;1.38;;
54307;SDS011;40208;39.778;2.710;2023-06-14T13:07:30;2.90;;;1.45;;
54307;SDS011;40208;39.778;2.710;2023-06-14T13:10:16;2.08;;;1.50;;
54307;SDS011;40208;39.778;2.710;2023-06-14T13:13:02;2.65;;;1.45;;
54307;SDS011;40208;39.778;2.710;2023-06-14T13:15:48;3.03;;;1.67;;
54307;SDS011;40208;39.778;2.710;2023-06-14T13:18:35;3.75;;;1.70;;
54307;SDS011;40208;39.778;2.710;2023-06-14T13:21:20;2.30;;;1.45;;
54307;SDS011;40208;39.778;2.710;2023-06-14T13:24:05;2.17;;;1.35;;
54307;SDS011;40208;39.778;2.710;2023-06-14T13:26:50;5.90;;;1.45;;
54307;SDS011;40208;39.778;2.710;2023-06-14T13:29:35;2.08;;;1.50;;
54307;SDS011;40208;39.778;2.710;2023-06-14T13:32:20;2.40;;;1.42;;
54307;SDS011;40208;39.778;2.710;2023-06-14T13:35:07;1.95;;;1.35;;
54307;SDS011;40208;39.778;2.710;2023-06-14T13:37:55;6.00;;;1.52;;
54307;SDS011;40208;39.778;2.710;2023-06-14T13:40:41;10.95;;;1.92;;
54307;SDS011;40208;39.778;2.710;2023-06-14T13:43:26;4.53;;;2.15;;
54307;SDS011;40208;39.778;2.710;2023-06-14T13:46:11;4.03;;;1.88;;
54307;SDS011;40208;39.778;2.710;2023-06-14T13:48:57;2.95;;;1.30;;
54307;SDS011;40208;39.778;2.710;2023-06-14T13:51:46;3.17;;;1.63;;
54307;SDS011;40208;39.778;2.710;2023-06-14T13:54:31;1.88;;;1.40;;
54307;SDS011;40208;39.778;2.710;2023-06-14T13:57:19;2.90;;;1.40;;
54307;SDS011;40208;39.778;2.710;2023-06-14T14:00:04;6.90;;;2.13;;
54307;SDS011;40208;39.778;2.710;2023-06-14T14:02:50;2.85;;;1.70;;
54307;SDS011;40208;39.778;2.710;2023-06-14T14:05:35;1.63;;;1.15;;
54307;SDS011;40208;39.778;2.710;2023-06-14T14:08:19;4.35;;;1.90;;
54307;SDS011;40208;39.778;2.710;2023-06-14T14:11:05;2.00;;;1.20;;
54307;SDS011;40208;39.778;2.710;2023-06-14T14:13:50;5.13;;;1.63;;
54307;SDS011;40208;39.778;2.710;2023-06-14T14:16:35;5.68;;;1.85;;
54307;SDS011;40208;39.778;2.710;2023-06-14T14:19:21;4.78;;;1.48;;
54307;SDS011;40208;39.778;2.710;2023-06-14T14:22:06;5.53;;;1.90;;
54307;SDS011;40208;39.778;2.710;2023-06-14T14:24:51;2.20;;;1.35;;
54307;SDS011;40208;39.778;2.710;2023-06-14T14:27:36;4.88;;;1.67;;
54307;SDS011;40208;39.778;2.710;2023-06-14T14:30:21;3.30;;;1.73;;
54307;SDS011;40208;39.778;2.710;2023-06-14T14:33:08;3.85;;;1.90;;
54307;SDS011;40208;39.778;2.710;2023-06-14T14:35:53;3.97;;;1.52;;
54307;SDS011;40208;39.778;2.710;2023-06-14T14:38:40;3.25;;;1.60;;
54307;SDS011;40208;39.778;2.710;2023-06-14T14:41:24;1.83;;;1.42;;
54307;SDS011;40208;39.778;2.710;2023-06-14T14:44:09;7.60;;;1.70;;
54307;SDS011;40208;39.778;2.710;2023-06-14T14:46:54;4.18;;;1.60;;
54307;SDS011;40208;39.778;2.710;2023-06-14T14:49:39;4.55;;;1.60;;
54307;SDS011;40208;39.778;2.710;2023-06-14T14:52:24;3.80;;;1.67;;
54307;SDS011;40208;39.778;2.710;2023-06-14T14:55:11;3.15;;;1.65;;
54307;SDS011;40208;39.778;2.710;2023-06-14T14:57:55;2.75;;;1.40;;
54307;SDS011;40208;39.778;2.710;2023-06-14T15:00:42;4.25;;;1.60;;
54307;SDS011;40208;39.778;2.710;2023-06-14T15:03:27;3.92;;;1.60;;
54307;SDS011;40208;39.778;2.710;2023-06-14T15:06:12;4.50;;;1.70;;
54307;SDS011;40208;39.778;2.710;2023-06-14T15:08:57;3.55;;;1.40;;
54307;SDS011;40208;39.778;2.710;2023-06-14T15:11:42;4.00;;;1.67;;
54307;SDS011;40208;39.778;2.710;2023-06-14T15:14:31;4.13;;;1.50;;
54307;SDS011;40208;39.778;2.710;2023-06-14T15:17:16;2.55;;;1.30;;
54307;SDS011;40208;39.778;2.710;2023-06-14T15:20:02;6.68;;;1.75;;
54307;SDS011;40208;39.778;2.710;2023-06-14T15:22:50;4.20;;;1.77;;
54307;SDS011;40208;39.778;2.710;2023-06-14T15:25:35;6.13;;;1.58;;
54307;SDS011;40208;39.778;2.710;2023-06-14T15:28:22;2.53;;;1.42;;
54307;SDS011;40208;39.778;2.710;2023-06-14T15:31:10;8.02;;;1.75;;
54307;SDS011;40208;39.778;2.710;2023-06-14T15:33:55;5.75;;;1.60;;
54307;SDS011;40208;39.778;2.710;2023-06-14T15:36:42;3.55;;;1.70;;
54307;SDS011;40208;39.778;2.710;2023-06-14T15:39:28;3.05;;;1.50;;
54307;SDS011;40208;39.778;2.710;2023-06-14T15:42:16;2.90;;;1.70;;
54307;SDS011;40208;39.778;2.710;2023-06-14T15:45:00;4.47;;;1.95;;
54307;SDS011;40208;39.778;2.710;2023-06-14T15:47:45;4.50;;;1.70;;
54307;SDS011;40208;39.778;2.710;2023-06-14T15:50:30;6.78;;;2.25;;
54307;SDS011;40208;39.778;2.710;2023-06-14T15:53:15;2.95;;;1.55;;
54307;SDS011;40208;39.778;2.710;2023-06-14T15:56:00;4.57;;;2.35;;
54307;SDS011;40208;39.778;2.710;2023-06-14T15:58:45;6.88;;;1.90;;
54307;SDS011;40208;39.778;2.710;2023-06-14T16:01:30;4.43;;;1.42;;
54307;SDS011;40208;39.778;2.710;2023-06-14T16:04:15;5.78;;;2.15;;
54307;SDS011;40208;39.778;2.710;2023-06-14T16:07:00;2.75;;;1.88;;
54307;SDS011;40208;39.778;2.710;2023-06-14T16:09:45;5.55;;;1.85;;
54307;SDS011;40208;39.778;2.710;2023-06-14T16:12:30;3.92;;;2.30;;
54307;SDS011;40208;39.778;2.710;2023-06-14T16:15:15;8.95;;;2.25;;
54307;SDS011;40208;39.778;2.710;2023-06-14T16:18:00;7.47;;;2.20;;
54307;SDS011;40208;39.778;2.710;2023-06-14T16:20:45;3.22;;;2.17;;
54307;SDS011;40208;39.778;2.710;2023-06-14T16:23:32;3.65;;;2.00;;
54307;SDS011;40208;39.778;2.710;2023-06-14T16:26:17;6.20;;;2.33;;
54307;SDS011;40208;39.778;2.710;2023-06-14T16:29:02;4.47;;;1.80;;
54307;SDS011;40208;39.778;2.710;2023-06-14T16:31:49;4.70;;;2.10;;
54307;SDS011;40208;39.778;2.710;2023-06-14T16:34:38;2.55;;;1.63;;
54307;SDS011;40208;39.778;2.710;2023-06-14T16:37:23;9.32;;;1.95;;
54307;SDS011;40208;39.778;2.710;2023-06-14T16:40:08;4.55;;;1.70;;
54307;SDS011;40208;39.778;2.710;2023-06-14T16:42:55;6.03;;;2.13;;
54307;SDS011;40208;39.778;2.710;2023-06-14T16:45:42;5.65;;;2.00;;
54307;SDS011;40208;39.778;2.710;2023-06-14T16:48:27;2.13;;;1.65;;
54307;SDS011;40208;39.778;2.710;2023-06-14T16:51:12;4.10;;;1.85;;